createdAt,value
2022-12-28T00:01:23.565Z,7.03
2022-12-28T00:03:51.021Z,6.73
2022-12-28T00:06:19.374Z,6.99
2022-12-28T00:08:46.047Z,7.19
2022-12-28T00:11:28.139Z,7.15
2022-12-28T00:14:00.268Z,7.07
2022-12-28T00:16:35.182Z,7.36
2022-12-28T00:19:04.913Z,7.33
2022-12-28T00:21:31.730Z,7.28
2022-12-28T00:23:59.879Z,7.58
2022-12-28T00:26:28.501Z,7.84
2022-12-28T00:29:00.061Z,7.71
2022-12-28T00:31:30.817Z,7.60
2022-12-28T00:33:57.483Z,7.53
2022-12-28T00:36:24.258Z,7.28
2022-12-28T00:38:50.900Z,7.16
2022-12-28T00:41:17.763Z,7.45
2022-12-28T00:43:44.653Z,7.46
2022-12-28T00:46:11.304Z,7.33
2022-12-28T00:48:38.015Z,7.04
2022-12-28T00:51:17.266Z,6.84
2022-12-28T00:53:44.364Z,6.84
2022-12-28T00:56:14.333Z,6.74
2022-12-28T00:58:41.386Z,6.93
2022-12-28T01:01:14.748Z,7.08
2022-12-28T01:03:41.468Z,7.03
2022-12-28T01:06:09.858Z,6.72
2022-12-28T01:08:39.994Z,6.83
2022-12-28T01:11:17.420Z,6.78
2022-12-28T01:13:44.055Z,6.84
2022-12-28T01:16:16.164Z,6.79
2022-12-28T01:18:43.602Z,6.63
2022-12-28T01:21:15.532Z,6.40
2022-12-28T01:23:42.571Z,6.24
2022-12-28T01:26:09.435Z,6.19
2022-12-28T01:28:36.354Z,6.28
2022-12-28T01:31:05.141Z,6.38
2022-12-28T01:33:31.864Z,6.32
2022-12-28T01:35:58.423Z,6.00
2022-12-28T01:38:25.340Z,6.78
2022-12-28T01:40:51.977Z,6.81
2022-12-28T01:43:29.767Z,6.88
2022-12-28T01:45:56.709Z,7.04
2022-12-28T01:48:25.469Z,6.72
2022-12-28T01:50:53.135Z,6.71
2022-12-28T01:53:21.529Z,6.72
2022-12-28T01:55:48.966Z,6.63
2022-12-28T01:58:21.038Z,6.35
